createdAt,value
2018-06-30T00:01:56.951Z,5.07
2018-06-30T00:04:25.625Z,4.40
2018-06-30T00:06:54.371Z,4.53
2018-06-30T00:12:16.294Z,5.00
2018-06-30T00:17:37.587Z,5.67
2018-06-30T00:20:28.251Z,5.00
2018-06-30T00:22:57.063Z,4.40
2018-06-30T00:25:26.049Z,5.43
2018-06-30T00:27:56.454Z,4.90
2018-06-30T00:30:25.910Z,6.00
2018-06-30T00:33:22.774Z,5.90
2018-06-30T00:38:59.317Z,8.53
2018-06-30T00:41:27.959Z,4.93
2018-06-30T00:44:09.580Z,10.40
2018-06-30T00:46:45.749Z,5.67
2018-06-30T00:52:22.528Z,6.57
2018-06-30T01:06:33.661Z,4.83
2018-06-30T01:09:02.422Z,5.37
2018-06-30T01:11:31.506Z,7.13
2018-06-30T01:14:03.057Z,8.27
2018-06-30T01:19:34.505Z,6.40
2018-06-30T01:22:03.263Z,6.83
2018-06-30T01:29:44.262Z,7.70
2018-06-30T01:37:14.007Z,8.30
2018-06-30T01:39:42.737Z,5.57
2018-06-30T01:42:11.545Z,5.27
2018-06-30T01:44:53.574Z,8.23
2018-06-30T01:47:22.261Z,5.50
2018-06-30T01:50:07.613Z,7.43
2018-06-30T01:52:36.346Z,5.97
2018-06-30T01:55:05.194Z,5.23
2018-06-30T01:58:02.426Z,6.13
2018-06-30T02:00:50.384Z,5.87
2018-06-30T02:03:23.042Z,7.23
2018-06-30T02:05:51.771Z,6.13
2018-06-30T02:08:22.473Z,5.27
2018-06-30T02:10:53.010Z,10.03
2018-06-30T02:16:37.877Z,5.93
2018-06-30T02:22:00.250Z,5.97
2018-06-30T02:24:29.145Z,6.53
2018-06-30T02:26:57.891Z,6.53
2018-06-30T02:29:26.755Z,4.20
2018-06-30T02:34:48.297Z,6.80
2018-06-30T02:37:22.677Z,7.17
2018-06-30T02:39:51.502Z,6.90
2018-06-30T02:45:13.944Z,5.87
2018-06-30T02:47:53.047Z,6.43
2018-06-30T02:50:59.086Z,8.57
2018-06-30T02:53:27.978Z,10.93
2018-06-30T02:55:56.929Z,5.20
2018-06-30T02:58:29.170Z,5.10
2018-06-30T03:00:58.273Z,7.57
2018-06-30T03:03:28.631Z,8.53
2018-06-30T03:05:57.418Z,6.70
2018-06-30T03:11:09.818Z,7.93
2018-06-30T03:13:57.636Z,10.23
2018-06-30T03:16:38.073Z,6.67
2018-06-30T03:19:10.052Z,9.10
2018-06-30T03:21:39.850Z,7.27
2018-06-30T03:24:09.130Z,9.13
2018-06-30T03:27:09.469Z,8.70
2018-06-30T03:33:07.072Z,8.00
2018-06-30T03:35:35.862Z,6.10
2018-06-30T03:38:10.453Z,6.77
2018-06-30T03:45:38.901Z,6.60
2018-06-30T03:48:07.674Z,8.90
2018-06-30T03:50:40.518Z,6.23
2018-06-30T03:53:09.726Z,7.03
2018-06-30T03:55:39.609Z,6.70
2018-06-30T03:58:09.931Z,8.63
2018-06-30T04:00:39.082Z,7.27
2018-06-30T04:03:10.102Z,6.40
2018-06-30T04:05:38.841Z,7.10
2018-06-30T04:08:07.510Z,8.50
2018-06-30T04:10:36.210Z,9.03
2018-06-30T04:21:49.440Z,8.53
2018-06-30T04:29:21.350Z,7.90
2018-06-30T04:31:50.059Z,9.60
2018-06-30T04:34:19.405Z,6.90
2018-06-30T04:36:51.594Z,10.53
2018-06-30T04:39:20.278Z,9.57
2018-06-30T04:41:48.974Z,7.40
2018-06-30T04:44:18.138Z,7.20
2018-06-30T04:46:50.305Z,9.70
2018-06-30T04:49:18.974Z,9.73
2018-06-30T04:52:04.286Z,9.67
2018-06-30T04:57:34.596Z,8.40
2018-06-30T05:03:59.654Z,11.90
2018-06-30T05:09:44.679Z,11.70
2018-06-30T05:12:13.503Z,9.53
2018-06-30T05:17:37.944Z,11.10
2018-06-30T05:20:06.918Z,10.67
2018-06-30T05:22:37.375Z,11.30
2018-06-30T05:25:06.394Z,11.00
2018-06-30T05:27:36.811Z,10.70
2018-06-30T05:33:09.390Z,12.10
2018-06-30T05:36:50.228Z,9.80
2018-06-30T05:42:22.338Z,8.57
2018-06-30T05:44:51.361Z,8.43
2018-06-30T05:47:35.709Z,10.80
2018-06-30T05:50:04.673Z,9.67
2018-06-30T05:52:36.949Z,10.77
2018-06-30T05:55:07.275Z,10.27
2018-06-30T05:57:36.089Z,10.20
2018-06-30T06:00:09.069Z,11.03
2018-06-30T06:02:37.943Z,21.20
2018-06-30T06:05:07.876Z,8.50
2018-06-30T06:07:37.015Z,10.10
2018-06-30T06:10:07.058Z,10.10
2018-06-30T06:12:37.154Z,8.93
2018-06-30T06:15:07.232Z,11.33
2018-06-30T06:18:12.036Z,10.43
2018-06-30T06:20:40.846Z,9.77
2018-06-30T06:23:09.542Z,8.00
2018-06-30T06:25:38.539Z,11.03
2018-06-30T06:30:52.933Z,10.87
2018-06-30T06:42:11.513Z,11.27
2018-06-30T06:48:02.564Z,13.30
2018-06-30T06:53:27.481Z,8.50
2018-06-30T06:55:56.212Z,9.03
2018-06-30T06:58:48.288Z,8.97
2018-06-30T07:01:16.998Z,11.00
2018-06-30T07:03:47.360Z,11.03
2018-06-30T07:09:14.324Z,9.23
2018-06-30T07:11:43.657Z,8.70
2018-06-30T07:14:18.585Z,10.07
2018-06-30T07:17:07.038Z,13.80
2018-06-30T07:19:52.034Z,10.60
2018-06-30T07:22:24.590Z,9.97
2018-06-30T07:27:46.708Z,9.73
2018-06-30T07:38:18.821Z,10.77
2018-06-30T07:44:27.405Z,10.77
2018-06-30T07:46:56.030Z,11.60
2018-06-30T07:49:48.643Z,8.07
2018-06-30T07:55:21.235Z,9.57
2018-06-30T07:57:52.133Z,10.93
2018-06-30T08:00:20.919Z,9.90
2018-06-30T08:02:50.149Z,9.20
2018-06-30T08:11:05.047Z,11.10
2018-06-30T08:13:34.156Z,9.47
2018-06-30T08:16:58.986Z,9.03
2018-06-30T08:19:27.619Z,9.60
2018-06-30T08:22:00.500Z,8.60
2018-06-30T08:24:29.206Z,11.60
2018-06-30T08:26:58.084Z,8.53
2018-06-30T08:32:19.503Z,9.60
2018-06-30T08:35:04.070Z,10.70
2018-06-30T08:37:34.203Z,8.83
2018-06-30T08:40:03.487Z,8.93
2018-06-30T08:42:44.312Z,9.47
2018-06-30T08:45:30.787Z,7.50
2018-06-30T08:47:59.835Z,7.17
2018-06-30T08:50:29.010Z,7.77
2018-06-30T08:52:59.281Z,6.70
2018-06-30T08:55:41.278Z,6.03
2018-06-30T08:58:28.100Z,9.43
2018-06-30T09:00:57.279Z,9.63
2018-06-30T09:03:27.582Z,9.53
2018-06-30T09:06:09.705Z,6.30
2018-06-30T09:08:38.600Z,8.83
2018-06-30T09:11:07.861Z,8.20
2018-06-30T09:16:39.236Z,6.53
2018-06-30T09:19:08.070Z,9.17
2018-06-30T09:21:38.128Z,6.30
2018-06-30T09:33:22.237Z,5.27
2018-06-30T09:35:51.067Z,5.67
2018-06-30T09:38:25.340Z,6.13
2018-06-30T09:41:01.997Z,5.00
2018-06-30T09:43:30.840Z,5.50
2018-06-30T09:45:59.613Z,8.13
2018-06-30T09:51:37.649Z,6.70
2018-06-30T09:54:31.229Z,10.97
2018-06-30T09:57:00.190Z,5.60
2018-06-30T09:59:30.838Z,5.20
2018-06-30T10:01:59.807Z,5.70
2018-06-30T10:04:28.519Z,4.30
2018-06-30T10:06:59.072Z,5.27
2018-06-30T10:09:28.000Z,9.33
2018-06-30T10:11:56.681Z,7.17
2018-06-30T10:14:31.993Z,5.67
2018-06-30T10:17:00.890Z,6.73
2018-06-30T10:20:00.791Z,5.17
2018-06-30T10:22:32.691Z,5.73
2018-06-30T10:30:50.221Z,4.90
2018-06-30T10:39:05.262Z,5.37
2018-06-30T10:47:40.854Z,6.00
2018-06-30T10:50:17.079Z,7.23
2018-06-30T10:53:01.487Z,6.00
2018-06-30T10:55:30.641Z,4.90
2018-06-30T10:57:59.275Z,6.03
2018-06-30T11:00:28.105Z,5.33
2018-06-30T11:02:56.759Z,4.97
2018-06-30T11:05:30.086Z,4.73
2018-06-30T11:07:59.293Z,4.40
2018-06-30T11:10:28.066Z,4.40
2018-06-30T11:12:56.755Z,5.63
2018-06-30T11:15:25.367Z,4.33
2018-06-30T11:18:01.592Z,6.70
2018-06-30T11:20:31.658Z,3.90
2018-06-30T11:23:00.937Z,4.60
2018-06-30T11:25:29.638Z,4.33
2018-06-30T11:27:58.238Z,8.37
2018-06-30T11:30:32.238Z,5.33
2018-06-30T11:33:00.933Z,6.73
2018-06-30T11:35:32.724Z,4.10
2018-06-30T11:38:01.394Z,6.13
2018-06-30T11:40:30.060Z,4.10
2018-06-30T11:42:58.678Z,4.97
2018-06-30T11:45:27.521Z,4.40
2018-06-30T11:47:56.184Z,4.53
2018-06-30T11:50:31.327Z,5.37
2018-06-30T11:53:00.180Z,5.63
2018-06-30T11:55:30.700Z,4.43
2018-06-30T12:00:39.485Z,4.30
2018-06-30T12:03:08.831Z,3.60
2018-06-30T12:05:37.513Z,3.73
2018-06-30T12:08:06.284Z,4.67
2018-06-30T12:10:35.060Z,3.77
2018-06-30T12:13:03.649Z,4.90
2018-06-30T12:15:53.622Z,3.90
2018-06-30T12:18:27.789Z,2.90
2018-06-30T12:21:00.833Z,4.60
2018-06-30T12:23:29.543Z,5.03
2018-06-30T12:25:58.333Z,5.17
2018-06-30T12:28:27.393Z,4.17
2018-06-30T12:31:03.628Z,3.27
2018-06-30T12:33:32.439Z,3.50
2018-06-30T12:36:02.481Z,3.00
2018-06-30T12:38:31.247Z,5.27
2018-06-30T12:43:53.665Z,5.40
2018-06-30T12:46:22.256Z,3.57
2018-06-30T12:51:53.578Z,5.13
2018-06-30T12:54:22.485Z,4.40
2018-06-30T12:57:03.425Z,4.07
2018-06-30T12:59:31.780Z,3.60
2018-06-30T13:02:00.543Z,5.03
2018-06-30T13:04:29.733Z,5.63
2018-06-30T13:06:58.603Z,3.60
2018-06-30T13:09:28.720Z,4.47
2018-06-30T13:11:57.425Z,3.33
2018-06-30T13:14:26.480Z,3.27
2018-06-30T13:16:55.204Z,4.03
2018-06-30T13:19:23.900Z,4.03
2018-06-30T13:21:52.693Z,3.60
2018-06-30T13:24:22.822Z,4.90
2018-06-30T13:26:59.156Z,4.10
2018-06-30T13:29:41.808Z,5.10
2018-06-30T13:32:11.115Z,6.43
2018-06-30T13:34:39.845Z,3.30
2018-06-30T13:37:10.404Z,3.70
2018-06-30T13:39:39.666Z,3.97
2018-06-30T13:42:09.137Z,3.83
2018-06-30T13:44:38.340Z,3.50
2018-06-30T13:50:00.209Z,3.27
2018-06-30T13:52:29.830Z,3.23
2018-06-30T13:54:58.530Z,4.80
2018-06-30T13:57:27.309Z,4.00
2018-06-30T13:59:56.139Z,3.73
2018-06-30T14:02:24.994Z,8.30
2018-06-30T14:04:53.882Z,3.57
2018-06-30T14:08:41.634Z,3.50
2018-06-30T14:11:10.600Z,4.53
2018-06-30T14:16:42.897Z,5.23
2018-06-30T14:19:49.711Z,5.40
2018-06-30T14:25:12.467Z,6.23
2018-06-30T14:27:54.657Z,5.50
2018-06-30T14:33:38.886Z,4.67
2018-06-30T14:36:07.950Z,4.43
2018-06-30T14:38:36.955Z,4.10
2018-06-30T14:41:05.698Z,4.40
2018-06-30T14:43:38.406Z,4.70
2018-06-30T14:48:55.520Z,5.40
2018-06-30T14:51:31.850Z,4.90
2018-06-30T14:54:03.009Z,5.33
2018-06-30T15:02:30.771Z,4.87
2018-06-30T15:05:09.312Z,4.70
2018-06-30T15:07:38.089Z,4.90
2018-06-30T15:12:59.519Z,5.00
2018-06-30T15:15:32.467Z,4.37
2018-06-30T15:19:51.221Z,4.77
2018-06-30T15:25:13.141Z,6.73
2018-06-30T15:27:46.157Z,5.97
2018-06-30T15:30:14.921Z,4.90
2018-06-30T15:36:03.654Z,4.50
2018-06-30T15:38:47.306Z,3.50
2018-06-30T15:41:32.345Z,4.40
2018-06-30T15:44:29.264Z,6.83
2018-06-30T15:49:46.636Z,4.70
2018-06-30T15:52:15.394Z,4.83
2018-06-30T16:02:19.379Z,4.20
2018-06-30T16:04:48.589Z,4.03
2018-06-30T16:07:17.290Z,4.20
2018-06-30T16:09:46.174Z,4.77
2018-06-30T16:12:27.504Z,5.90
2018-06-30T16:18:04.734Z,6.00
2018-06-30T16:23:35.442Z,3.70
2018-06-30T16:26:16.932Z,4.20
2018-06-30T16:31:43.400Z,4.33
2018-06-30T16:34:13.079Z,4.33
2018-06-30T16:36:59.876Z,4.13
2018-06-30T16:42:37.144Z,4.33
2018-06-30T16:45:05.959Z,4.60
2018-06-30T16:47:47.685Z,4.13
2018-06-30T16:50:16.763Z,4.07
2018-06-30T16:52:45.489Z,5.87
2018-06-30T17:04:06.033Z,4.73
2018-06-30T17:06:37.843Z,4.97
2018-06-30T17:09:10.395Z,5.10
2018-06-30T17:11:39.119Z,4.20
2018-06-30T17:14:11.298Z,5.23
2018-06-30T17:19:42.976Z,4.93
2018-06-30T17:22:15.042Z,4.83
2018-06-30T17:24:44.217Z,4.60
2018-06-30T17:27:12.957Z,4.37
2018-06-30T17:32:45.566Z,6.43
2018-06-30T17:35:14.453Z,5.77
2018-06-30T17:40:52.695Z,4.50
2018-06-30T17:43:27.893Z,5.27
2018-06-30T17:45:56.759Z,4.37
2018-06-30T17:48:44.079Z,7.07
2018-06-30T17:51:34.733Z,9.80
2018-06-30T17:54:03.586Z,4.20
2018-06-30T17:56:33.451Z,5.13
2018-06-30T18:02:02.840Z,3.10
2018-06-30T18:04:31.473Z,4.27
2018-06-30T18:07:00.885Z,4.20
2018-06-30T18:09:42.856Z,2.80
2018-06-30T18:12:11.467Z,3.37
2018-06-30T18:14:40.077Z,2.60
2018-06-30T18:17:09.026Z,2.90
2018-06-30T18:19:37.892Z,2.57
2018-06-30T18:22:06.437Z,3.00
2018-06-30T18:24:34.922Z,3.50
2018-06-30T18:27:52.645Z,3.10
2018-06-30T18:30:50.193Z,3.43
2018-06-30T18:33:21.206Z,2.50
2018-06-30T18:38:44.673Z,3.93
2018-06-30T18:41:13.262Z,2.40
2018-06-30T18:43:42.035Z,1.87
2018-06-30T18:46:26.042Z,5.33
2018-06-30T18:48:54.613Z,2.37
2018-06-30T18:51:23.834Z,2.33
2018-06-30T18:53:52.462Z,1.90
2018-06-30T18:56:21.305Z,2.53
2018-06-30T18:58:52.007Z,2.90
2018-06-30T19:01:21.453Z,2.83
2018-06-30T19:03:51.441Z,1.63
2018-06-30T19:06:20.231Z,2.60
2018-06-30T19:08:49.425Z,4.90
2018-06-30T19:14:16.713Z,3.10
2018-06-30T19:19:24.571Z,2.23
2018-06-30T19:21:53.537Z,2.53
2018-06-30T19:24:22.116Z,2.20
2018-06-30T19:26:51.288Z,2.10
2018-06-30T19:29:19.980Z,4.30
2018-06-30T19:34:28.613Z,5.00
2018-06-30T19:36:57.166Z,2.50
2018-06-30T19:39:25.801Z,4.07
2018-06-30T19:41:54.259Z,2.53
2018-06-30T19:44:22.778Z,3.50
2018-06-30T19:46:55.814Z,10.67
2018-06-30T19:49:25.065Z,3.40
2018-06-30T19:51:53.825Z,2.73
2018-06-30T19:54:22.377Z,5.53
2018-06-30T19:56:52.523Z,3.80
2018-06-30T19:59:21.108Z,3.20
2018-06-30T20:01:52.647Z,4.00
2018-06-30T20:04:24.936Z,3.00
2018-06-30T20:09:46.349Z,3.60
2018-06-30T20:12:15.406Z,2.33
2018-06-30T20:14:44.435Z,2.30
2018-06-30T20:17:14.926Z,2.43
2018-06-30T20:20:04.981Z,2.67
2018-06-30T20:22:34.963Z,2.23
2018-06-30T20:25:35.666Z,4.97
2018-06-30T20:28:04.940Z,1.80
2018-06-30T20:30:34.151Z,2.83
2018-06-30T20:33:02.735Z,2.57
2018-06-30T20:35:33.386Z,2.00
2018-06-30T20:38:02.835Z,1.47
2018-06-30T20:40:32.203Z,1.73
2018-06-30T20:43:00.812Z,2.07
2018-06-30T20:45:34.886Z,1.37
2018-06-30T20:48:04.059Z,2.90
2018-06-30T20:50:32.737Z,1.17
2018-06-30T20:53:01.498Z,1.30
2018-06-30T20:55:45.398Z,3.57
2018-06-30T20:58:14.437Z,1.90
2018-06-30T21:00:43.974Z,1.73
2018-06-30T21:03:13.524Z,1.37
2018-06-30T21:05:53.140Z,1.47
2018-06-30T21:08:22.084Z,1.43
2018-06-30T21:10:50.634Z,1.90
2018-06-30T21:13:19.198Z,1.20
2018-06-30T21:15:56.990Z,1.30
2018-06-30T21:18:26.216Z,1.20
2018-06-30T21:20:55.560Z,0.93
2018-06-30T21:23:24.476Z,1.40
2018-06-30T21:25:59.115Z,1.40
2018-06-30T21:31:32.318Z,1.20
2018-06-30T21:34:03.778Z,1.10
2018-06-30T21:45:48.915Z,2.13
2018-06-30T21:48:34.224Z,1.07
2018-06-30T21:52:13.452Z,1.03
2018-06-30T21:57:37.563Z,1.40
2018-06-30T22:00:26.569Z,1.30
2018-06-30T22:02:55.521Z,1.30
2018-06-30T22:05:30.057Z,1.30
2018-06-30T22:07:59.063Z,2.13
2018-06-30T22:10:27.808Z,1.20
2018-06-30T22:12:56.725Z,0.90
2018-06-30T22:15:25.532Z,1.10
2018-06-30T22:17:54.353Z,1.57
2018-06-30T22:20:39.287Z,0.90
2018-06-30T22:26:36.836Z,0.97
2018-06-30T22:35:12.357Z,1.00
2018-06-30T22:37:41.413Z,1.33
2018-06-30T22:43:02.417Z,1.27
2018-06-30T22:48:52.267Z,1.10
2018-06-30T22:51:39.423Z,1.20
2018-06-30T22:54:25.910Z,1.07
2018-06-30T22:59:58.277Z,1.10
2018-06-30T23:05:20.380Z,1.53
2018-06-30T23:13:56.965Z,1.00
2018-06-30T23:16:25.772Z,2.03
2018-06-30T23:21:58.251Z,1.03
2018-06-30T23:24:26.955Z,1.20
2018-06-30T23:31:28.023Z,1.73
2018-06-30T23:33:56.978Z,1.27
2018-06-30T23:36:25.725Z,1.10
2018-06-30T23:41:58.987Z,2.40
2018-06-30T23:47:30.489Z,1.47
2018-06-30T23:53:02.385Z,0.90
2018-06-30T23:55:42.056Z,0.97
